Time;durP1;ratioP1;P1;durP2;ratioP2;P2;SDS_P1;SDS_P2;PMS_P1;PMS_P2;Temp;Humidity;BMP_temperature;BMP_pressure;BME280_temperature;BME280_humidity;BME280_pressure;Samples;Min_cycle;Max_cycle;Signal;HPM_P1;HPM_P2
2023/09/22 00:02:23;;;;;;;4.60;4.20;;;20.60;99.90;;;;;;4985125;28;20510;-59
2023/09/22 00:04:50;;;;;;;8.10;5.07;;;20.60;99.90;;;;;;4985217;28;20501;-60
2023/09/22 00:07:17;;;;;;;8.07;4.77;;;20.60;99.90;;;;;;4985188;28;20490;-59
2023/09/22 00:09:44;;;;;;;7.13;5.13;;;;;;;;;;4984040;28;20908;-60
2023/09/22 00:12:12;;;;;;;6.90;4.33;;;20.60;99.90;;;;;;4985082;28;20533;-60
2023/09/22 00:14:39;;;;;;;7.73;5.33;;;20.50;99.90;;;;;;4984122;28;20722;-61
2023/09/22 00:17:06;;;;;;;7.97;5.27;;;20.50;99.90;;;;;;4984968;28;20498;-60
2023/09/22 00:19:35;;;;;;;4.90;4.50;;;20.50;99.90;;;;;;4984711;28;20949;-58
2023/09/22 00:22:05;;;;;;;7.27;5.10;;;20.50;99.90;;;;;;4984565;28;20518;-60
2023/09/22 00:24:32;;;;;;;7.90;4.83;;;20.60;99.90;;;;;;4984105;28;20443;-59
2023/09/22 00:26:58;;;;;;;5.90;5.30;;;20.60;99.90;;;;;;4984297;28;20866;-59
2023/09/22 00:29:28;;;;;;;6.60;4.70;;;20.60;99.90;;;;;;4984432;28;20479;-60
2023/09/22 00:31:55;;;;;;;6.30;4.67;;;20.60;99.90;;;;;;4984420;28;20513;-58
2023/09/22 00:34:22;;;;;;;6.03;4.83;;;20.60;99.90;;;;;;4984131;28;20427;-61
2023/09/22 00:36:52;;;;;;;5.80;4.13;;;;;;;;;;4984443;28;20466;-60
2023/09/22 00:39:19;;;;;;;5.10;4.60;;;20.60;99.90;;;;;;4984173;28;20522;-60
2023/09/22 00:41:46;;;;;;;5.03;4.53;;;20.60;99.90;;;;;;4983452;28;20479;-60
2023/09/22 00:44:13;;;;;;;4.30;3.70;;;20.50;99.90;;;;;;4982923;28;20491;-60
2023/09/22 00:46:42;;;;;;;4.33;3.93;;;20.50;99.90;;;;;;4983806;28;20479;-59
2023/09/22 00:49:09;;;;;;;6.17;4.67;;;20.40;99.90;;;;;;4983850;28;20912;-60
2023/09/22 00:51:37;;;;;;;8.20;5.07;;;20.40;99.90;;;;;;4984249;28;20505;-60
2023/09/22 00:54:05;;;;;;;8.83;5.10;;;20.30;99.90;;;;;;4984112;28;20463;-61
2023/09/22 00:56:32;;;;;;;6.73;4.90;;;20.10;99.90;;;;;;4983753;28;20447;-61
2023/09/22 00:58:59;;;;;;;4.77;4.20;;;20.40;99.90;;;;;;4983601;28;20451;-60
2023/09/22 01:01:26;;;;;;;8.50;4.97;;;20.30;99.90;;;;;;4983879;28;20466;-60
2023/09/22 01:03:57;;;;;;;5.17;4.60;;;20.20;99.90;;;;;;4982953;28;20514;-60
2023/09/22 01:06:24;;;;;;;8.10;5.87;;;20.20;99.90;;;;;;4983466;28;20499;-59
2023/09/22 01:08:51;;;;;;;5.70;5.10;;;20.10;99.90;;;;;;4983517;28;20561;-59
2023/09/22 01:11:18;;;;;;;6.07;5.47;;;20.10;99.90;;;;;;4983702;28;20467;-58
2023/09/22 01:13:45;;;;;;;7.60;5.90;;;20.10;99.90;;;;;;4983940;28;20502;-60
2023/09/22 01:16:12;;;;;;;6.10;5.50;;;20.10;99.90;;;;;;4982696;28;20447;-60
2023/09/22 01:18:39;;;;;;;8.77;5.60;;;20.00;99.90;;;;;;4977271;28;20482;-60
2023/09/22 01:21:07;;;;;;;6.60;5.10;;;20.10;99.90;;;;;;4977284;28;20487;-59
2023/09/22 01:23:35;;;;;;;6.63;5.43;;;20.00;99.90;;;;;;4977233;28;20502;-59
2023/09/22 01:26:02;;;;;;;6.23;5.63;;;20.00;99.90;;;;;;4977085;28;20919;-60
2023/09/22 01:28:30;;;;;;;7.23;5.37;;;;;;;;;;4977078;28;20475;-60
2023/09/22 01:30:56;;;;;;;6.63;5.90;;;20.00;99.90;;;;;;4976954;28;20454;-60
2023/09/22 01:33:23;;;;;;;8.87;6.03;;;19.90;99.90;;;;;;4977083;28;20830;-59
2023/09/22 01:35:51;;;;;;;6.63;6.03;;;;;;;;;;4976842;28;20829;-60
2023/09/22 01:38:19;;;;;;;7.50;6.40;;;19.90;99.90;;;;;;4977017;28;20466;-60
2023/09/22 01:40:47;;;;;;;11.20;5.83;;;19.90;99.90;;;;;;4977031;28;20459;-60
2023/09/22 01:43:14;;;;;;;9.60;7.07;;;19.90;99.90;;;;;;4976907;28;20561;-61
2023/09/22 01:45:41;;;;;;;10.80;7.40;;;19.90;99.90;;;;;;4976952;28;20497;-61
2023/09/22 01:48:09;;;;;;;13.13;8.03;;;19.80;99.90;;;;;;4976550;28;20533;-58
2023/09/22 01:50:37;;;;;;;9.43;8.53;;;19.80;99.90;;;;;;4976612;28;20438;-61
2023/09/22 01:53:04;;;;;;;8.47;7.10;;;19.80;99.90;;;;;;4976818;28;20479;-61
2023/09/22 01:55:31;;;;;;;8.87;6.57;;;19.90;99.90;;;;;;4976906;28;20473;-60
2023/09/22 01:57:59;;;;;;;12.63;6.50;;;19.80;99.90;;;;;;4976763;28;20783;-61
2023/09/22 02:00:27;;;;;;;10.70;7.50;;;19.80;99.90;;;;;;4976625;28;20573;-61
2023/09/22 02:02:53;;;;;;;7.37;6.60;;;19.80;99.90;;;;;;4976630;28;20447;-59
2023/09/22 02:05:20;;;;;;;9.77;7.40;;;19.80;99.90;;;;;;4976656;28;20986;-61
2023/09/22 02:07:46;;;;;;;7.60;6.90;;;19.80;99.90;;;;;;4976168;28;20999;-61
2023/09/22 02:10:15;;;;;;;11.13;8.40;;;19.80;99.90;;;;;;4976334;28;20831;-59
2023/09/22 02:12:43;;;;;;;12.63;6.87;;;19.80;99.90;;;;;;4976135;28;20455;-60
2023/09/22 02:15:13;;;;;;;12.00;9.50;;;19.80;99.90;;;;;;4976390;28;20471;-59
2023/09/22 02:17:41;;;;;;;8.80;7.37;;;19.80;99.90;;;;;;4976401;28;20446;-60
2023/09/22 02:20:17;;;;;;;11.50;6.80;;;19.70;99.90;;;;;;4976051;28;20495;-59
2023/09/22 02:22:45;;;;;;;10.87;7.67;;;20.00;99.90;;;;;;4976121;28;20431;-60
2023/09/22 02:25:13;;;;;;;7.73;6.63;;;19.70;99.90;;;;;;4976212;28;20470;-60
2023/09/22 02:27:40;;;;;;;8.20;6.77;;;19.70;99.90;;;;;;4976293;28;20541;-62
2023/09/22 02:30:08;;;;;;;11.43;8.17;;;19.90;99.90;;;;;;4976095;28;20471;-60
2023/09/22 02:32:37;;;;;;;9.90;7.60;;;19.60;99.90;;;;;;4976115;28;20443;-58
2023/09/22 02:35:04;;;;;;;8.43;7.30;;;19.60;99.90;;;;;;4976220;28;20505;-60
2023/09/22 02:37:31;;;;;;;8.03;7.23;;;19.60;99.90;;;;;;4976179;28;20525;-61
2023/09/22 02:39:58;;;;;;;8.77;7.10;;;19.60;99.90;;;;;;4975883;28;20963;-59
2023/09/22 02:42:26;;;;;;;8.23;7.33;;;19.60;99.90;;;;;;4975701;28;21027;-60
2023/09/22 02:44:53;;;;;;;7.27;6.57;;;19.60;99.90;;;;;;4975890;28;20885;-62
2023/09/22 02:47:20;;;;;;;7.47;6.10;;;19.70;99.90;;;;;;4975787;28;20443;-58
2023/09/22 02:49:48;;;;;;;9.80;6.13;;;19.70;99.90;;;;;;4975991;28;20570;-61
2023/09/22 02:52:15;;;;;;;8.37;6.93;;;19.70;99.90;;;;;;4975825;28;20546;-60
2023/09/22 02:54:42;;;;;;;6.57;5.87;;;;;;;;;;4975594;28;20555;-61
2023/09/22 02:57:09;;;;;;;8.53;6.53;;;19.70;99.90;;;;;;4975948;28;20457;-62
2023/09/22 02:59:36;;;;;;;8.07;6.63;;;19.80;99.90;;;;;;4975365;28;20550;-61
2023/09/22 03:02:03;;;;;;;9.67;7.80;;;19.80;99.90;;;;;;4975451;28;20550;-61
2023/09/22 03:04:33;;;;;;;6.83;5.73;;;19.80;99.90;;;;;;4975435;28;20507;-59
2023/09/22 03:07:01;;;;;;;6.97;6.00;;;19.80;99.90;;;;;;4975267;28;20451;-60
2023/09/22 03:09:28;;;;;;;9.23;6.00;;;19.80;99.90;;;;;;4975801;28;20505;-59
2023/09/22 03:11:55;;;;;;;6.10;4.90;;;19.80;99.90;;;;;;4975757;28;20742;-59
2023/09/22 03:14:22;;;;;;;6.67;4.50;;;19.80;99.90;;;;;;4975424;28;20836;-60
2023/09/22 03:16:49;;;;;;;6.00;4.80;;;19.80;99.90;;;;;;4975597;28;20940;-61
2023/09/22 03:19:16;;;;;;;5.40;4.20;;;19.80;99.90;;;;;;4975542;28;20446;-60
2023/09/22 03:21:43;;;;;;;6.40;4.50;;;19.80;99.90;;;;;;4980056;28;20467;-62
2023/09/22 03:24:11;;;;;;;4.43;3.77;;;20.00;99.90;;;;;;4981047;28;20442;-60
2023/09/22 03:26:38;;;;;;;5.93;3.47;;;19.80;99.90;;;;;;4981758;28;20514;-58
2023/09/22 03:29:05;;;;;;;2.67;2.47;;;19.80;99.90;;;;;;4980634;28;20487;-60
2023/09/22 03:31:32;;;;;;;3.53;2.97;;;19.80;99.90;;;;;;4979517;28;20475;-60
2023/09/22 03:33:59;;;;;;;3.43;3.10;;;19.80;99.90;;;;;;4975495;28;20455;-60
2023/09/22 03:36:30;;;;;;;3.30;2.50;;;19.70;99.90;;;;;;4980012;28;20542;-60
2023/09/22 03:38:57;;;;;;;10.23;2.97;;;;;;;;;;4979764;28;20486;-61
2023/09/22 03:41:28;;;;;;;4.63;1.97;;;19.60;99.90;;;;;;4978756;28;20585;-60
2023/09/22 03:43:55;;;;;;;2.93;2.70;;;19.60;99.90;;;;;;4975452;28;20439;-59
2023/09/22 03:46:22;;;;;;;8.53;2.57;;;19.60;99.90;;;;;;4975072;28;20471;-59
2023/09/22 03:48:49;;;;;;;2.60;1.90;;;19.50;99.90;;;;;;4975073;28;20462;-59
2023/09/22 03:51:16;;;;;;;2.70;1.93;;;19.40;99.90;;;;;;4974974;28;20480;-60
2023/09/22 03:53:44;;;;;;;4.47;2.03;;;19.40;99.90;;;;;;4975021;28;20542;-61
2023/09/22 03:56:11;;;;;;;4.23;2.33;;;19.30;99.90;;;;;;4975200;28;20475;-59
2023/09/22 03:58:39;;;;;;;2.87;2.10;;;19.20;99.90;;;;;;4975262;28;20541;-59
2023/09/22 04:01:07;;;;;;;2.50;2.00;;;19.20;99.90;;;;;;4975072;28;20486;-61
2023/09/22 04:03:34;;;;;;;2.30;2.03;;;19.20;99.90;;;;;;4974832;28;20553;-61
2023/09/22 04:06:02;;;;;;;3.67;1.60;;;19.10;99.90;;;;;;4974809;28;20549;-60
2023/09/22 04:08:29;;;;;;;2.70;1.93;;;19.00;99.90;;;;;;4975235;28;20431;-59
2023/09/22 04:10:56;;;;;;;2.93;2.00;;;19.00;99.90;;;;;;4974763;28;20476;-60
2023/09/22 04:13:24;;;;;;;7.53;1.70;;;18.80;99.90;;;;;;4974782;28;20458;-59
2023/09/22 04:15:58;;;;;;;6.60;1.67;;;18.80;99.90;;;;;;4975034;28;20548;-60
2023/09/22 04:18:29;;;;;;;2.27;1.60;;;18.70;99.90;;;;;;4977438;28;20427;-58
2023/09/22 04:20:57;;;;;;;2.63;1.60;;;;;;;;;;4978222;28;20490;-59
2023/09/22 04:23:25;;;;;;;2.27;1.70;;;18.70;99.90;;;;;;4978553;28;20553;-60
2023/09/22 04:25:54;;;;;;;3.10;2.80;;;18.50;99.90;;;;;;4978588;28;20485;-61
2023/09/22 04:28:23;;;;;;;2.00;1.50;;;18.50;99.90;;;;;;4978478;28;20781;-59
2023/09/22 04:30:50;;;;;;;3.20;1.60;;;18.50;99.90;;;;;;4978225;28;20560;-60
2023/09/22 04:33:19;;;;;;;2.67;1.80;;;18.40;99.90;;;;;;4978261;28;20458;-60
2023/09/22 04:35:48;;;;;;;3.53;1.93;;;18.40;99.90;;;;;;4978220;28;20470;-60
2023/09/22 04:38:15;;;;;;;3.27;1.70;;;18.50;99.90;;;;;;4978280;28;20443;-60
2023/09/22 04:40:43;;;;;;;3.17;2.10;;;18.50;99.90;;;;;;4977993;28;20489;-60
2023/09/22 04:43:11;;;;;;;2.47;1.87;;;18.40;99.90;;;;;;4977845;28;20431;-60
2023/09/22 04:45:39;;;;;;;2.93;1.80;;;18.40;99.90;;;;;;4977827;28;20457;-58
2023/09/22 04:48:06;;;;;;;2.53;1.53;;;18.30;99.90;;;;;;4978068;28;20522;-60
2023/09/22 04:50:35;;;;;;;2.13;1.70;;;18.30;99.90;;;;;;4977916;28;20447;-60
2023/09/22 04:53:02;;;;;;;1.80;1.70;;;;;;;;;;4978038;28;20455;-61
2023/09/22 04:55:31;;;;;;;2.83;1.67;;;18.20;99.90;;;;;;4977830;28;20594;-61
2023/09/22 04:57:58;;;;;;;2.20;1.93;;;18.20;99.90;;;;;;4978084;28;20481;-60
2023/09/22 05:00:27;;;;;;;2.10;1.57;;;18.30;99.90;;;;;;4977750;28;20529;-58
2023/09/22 05:02:54;;;;;;;2.00;1.50;;;18.30;99.90;;;;;;4977714;28;20461;-59
2023/09/22 05:05:22;;;;;;;2.13;1.60;;;18.20;99.90;;;;;;4977760;28;20459;-60
2023/09/22 05:07:50;;;;;;;3.10;1.73;;;18.20;99.90;;;;;;4977343;28;20873;-60
2023/09/22 05:10:17;;;;;;;2.43;1.67;;;18.20;99.90;;;;;;4977337;28;20455;-61
2023/09/22 05:12:44;;;;;;;2.00;1.70;;;18.20;99.90;;;;;;4977251;28;20490;-60
2023/09/22 05:15:11;;;;;;;4.87;1.70;;;18.20;99.90;;;;;;4977538;28;20800;-61
2023/09/22 05:17:38;;;;;;;2.93;2.00;;;18.20;99.90;;;;;;4977396;28;20930;-60
2023/09/22 05:20:11;;;;;;;5.53;2.03;;;18.30;99.90;;;;;;4977525;28;20442;-60
2023/09/22 05:22:38;;;;;;;3.93;2.13;;;18.30;99.90;;;;;;4977382;28;20475;-57
2023/09/22 05:25:07;;;;;;;2.20;2.00;;;18.30;99.90;;;;;;4977407;28;20457;-59
2023/09/22 05:27:35;;;;;;;2.47;1.60;;;18.30;99.90;;;;;;4977352;28;20497;-61
2023/09/22 05:30:03;;;;;;;3.50;2.20;;;18.30;99.90;;;;;;4976679;28;20939;-59
2023/09/22 05:32:30;;;;;;;2.20;1.63;;;18.30;99.90;;;;;;4977165;28;20470;-59
2023/09/22 05:34:57;;;;;;;2.60;2.00;;;18.30;99.90;;;;;;4977142;28;20451;-60
2023/09/22 05:37:24;;;;;;;3.20;2.67;;;18.30;99.90;;;;;;4977050;28;20475;-61
2023/09/22 05:39:52;;;;;;;2.43;1.83;;;18.30;99.90;;;;;;4977096;28;20442;-59
2023/09/22 05:42:20;;;;;;;3.27;2.20;;;18.30;99.90;;;;;;4977053;28;20815;-60
2023/09/22 05:44:47;;;;;;;2.43;2.20;;;18.30;99.90;;;;;;4977053;28;20573;-60
2023/09/22 05:47:14;;;;;;;4.37;2.27;;;18.30;99.90;;;;;;4976538;28;20510;-60
2023/09/22 05:49:42;;;;;;;2.10;1.90;;;18.30;99.90;;;;;;4976673;28;20549;-60
2023/09/22 05:52:09;;;;;;;2.43;1.73;;;18.30;99.90;;;;;;4976798;28;20467;-61
2023/09/22 05:54:36;;;;;;;4.07;2.93;;;18.30;99.90;;;;;;4976801;28;20502;-59
2023/09/22 05:57:02;;;;;;;2.13;1.77;;;18.30;99.90;;;;;;4976618;28;20558;-60
2023/09/22 05:59:31;;;;;;;3.40;1.87;;;18.20;99.90;;;;;;4976394;28;20479;-60
2023/09/22 06:01:59;;;;;;;2.23;1.50;;;18.20;99.90;;;;;;4976430;28;21061;-56
2023/09/22 06:04:26;;;;;;;3.33;2.20;;;18.10;99.90;;;;;;4976791;28;20823;-62
2023/09/22 06:06:54;;;;;;;7.10;4.17;;;18.10;99.90;;;;;;4976344;28;20479;-60
2023/09/22 06:09:21;;;;;;;5.43;2.30;;;;;;;;;;4976879;28;20447;-61
2023/09/22 06:11:49;;;;;;;2.57;1.70;;;18.10;99.90;;;;;;4976453;28;20550;-60
2023/09/22 06:14:15;;;;;;;5.53;2.10;;;18.10;99.90;;;;;;4976202;28;20443;-60
2023/09/22 06:16:44;;;;;;;2.73;2.00;;;18.10;99.90;;;;;;4975947;28;20498;-59
2023/09/22 06:19:11;;;;;;;2.07;1.73;;;18.10;99.90;;;;;;4976492;28;20888;-62
2023/09/22 06:21:38;;;;;;;6.60;4.00;;;17.90;99.90;;;;;;4976167;28;20588;-63
2023/09/22 06:24:07;;;;;;;9.37;3.10;;;18.00;99.90;;;;;;4976244;28;20447;-61
2023/09/22 06:26:34;;;;;;;2.87;2.17;;;18.20;99.90;;;;;;4976022;28;20929;-59
2023/09/22 06:29:00;;;;;;;4.33;1.90;;;18.20;99.90;;;;;;4976252;28;20459;-60
2023/09/22 06:31:27;;;;;;;2.20;1.90;;;18.20;99.90;;;;;;4975689;28;21189;-60
2023/09/22 06:33:55;;;;;;;2.83;1.80;;;18.20;99.90;;;;;;4976074;28;20620;-60
2023/09/22 06:36:23;;;;;;;2.00;1.43;;;18.20;99.90;;;;;;4976053;28;20487;-61
2023/09/22 06:38:51;;;;;;;3.70;1.93;;;18.30;99.90;;;;;;4975718;28;20530;-61
2023/09/22 06:41:18;;;;;;;1.97;1.67;;;18.30;99.90;;;;;;4975224;28;20487;-60
2023/09/22 06:43:46;;;;;;;3.70;1.70;;;18.30;99.90;;;;;;4975706;28;20542;-60
2023/09/22 06:46:14;;;;;;;6.47;2.50;;;18.30;99.90;;;;;;4976088;28;20455;-59
2023/09/22 06:48:41;;;;;;;4.17;1.93;;;18.30;99.90;;;;;;4975897;28;20447;-60
2023/09/22 06:51:14;;;;;;;2.67;1.90;;;18.40;99.90;;;;;;4975769;28;20449;-61
2023/09/22 06:53:41;;;;;;;3.10;1.63;;;18.40;99.90;;;;;;4976049;28;20490;-61
2023/09/22 06:56:09;;;;;;;3.30;2.00;;;18.40;99.90;;;;;;4975770;28;20483;-59
2023/09/22 06:58:37;;;;;;;4.90;3.13;;;18.50;99.90;;;;;;4975700;28;20475;-61
2023/09/22 07:01:09;;;;;;;4.30;2.40;;;18.60;99.90;;;;;;4975493;28;20459;-61
2023/09/22 07:03:36;;;;;;;4.33;2.33;;;18.60;99.90;;;;;;4975642;28;20570;-60
2023/09/22 07:06:03;;;;;;;8.37;3.60;;;18.70;99.90;;;;;;4975223;28;20451;-59
2023/09/22 07:08:32;;;;;;;2.43;2.00;;;18.70;99.90;;;;;;4975250;28;20479;-59
2023/09/22 07:11:03;;;;;;;2.60;1.80;;;18.80;99.90;;;;;;4975347;28;20506;-61
2023/09/22 07:13:30;;;;;;;2.40;1.93;;;18.70;99.90;;;;;;4975785;28;20467;-59
2023/09/22 07:15:57;;;;;;;3.20;2.00;;;18.70;99.90;;;;;;4975340;28;20451;-61
2023/09/22 07:18:25;;;;;;;2.10;1.90;;;18.70;99.90;;;;;;4975051;28;20471;-59
2023/09/22 07:20:52;;;;;;;2.47;1.60;;;18.70;99.90;;;;;;4975177;28;20467;-59
2023/09/22 07:23:20;;;;;;;4.37;2.33;;;18.60;99.90;;;;;;4975073;28;20506;-59
2023/09/22 07:25:59;;;;;;;3.20;2.10;;;18.50;99.90;;;;;;4975239;28;20546;-60
2023/09/22 07:28:26;;;;;;;4.13;2.20;;;18.60;99.90;;;;;;4975552;28;20474;-60
2023/09/22 07:30:53;;;;;;;2.90;1.93;;;18.60;99.90;;;;;;4975470;28;20442;-60
2023/09/22 07:33:20;;;;;;;5.17;2.80;;;;;;;;;;4975065;28;20498;-60
2023/09/22 07:35:48;;;;;;;6.40;2.60;;;18.60;99.90;;;;;;4975157;28;20457;-59
2023/09/22 07:38:17;;;;;;;4.37;2.00;;;18.60;99.90;;;;;;4975375;28;20513;-60
2023/09/22 07:40:44;;;;;;;3.10;1.80;;;18.60;99.90;;;;;;4975468;28;20533;-60
2023/09/22 07:43:13;;;;;;;1.80;1.53;;;18.70;99.90;;;;;;4975231;28;20494;-60
2023/09/22 07:45:40;;;;;;;3.17;2.00;;;18.70;99.90;;;;;;4975063;28;20542;-60
2023/09/22 07:48:07;;;;;;;2.20;1.60;;;18.70;99.90;;;;;;4975267;28;20850;-60
2023/09/22 07:50:38;;;;;;;4.40;3.13;;;18.70;99.90;;;;;;4975008;28;20495;-60
2023/09/22 07:53:05;;;;;;;2.70;2.17;;;18.70;99.90;;;;;;4977531;28;20427;-60
2023/09/22 07:55:32;;;;;;;2.83;2.37;;;18.70;99.90;;;;;;4978753;28;20442;-60
2023/09/22 07:57:59;;;;;;;4.63;2.40;;;18.70;99.90;;;;;;4978637;28;20907;-59
2023/09/22 08:00:27;;;;;;;3.00;2.27;;;18.70;99.90;;;;;;4978915;28;20434;-61
2023/09/22 08:02:54;;;;;;;2.77;2.00;;;18.60;99.90;;;;;;4978678;28;20525;-60
2023/09/22 08:05:22;;;;;;;3.57;2.77;;;18.60;99.90;;;;;;4978593;28;20468;-60
2023/09/22 08:07:50;;;;;;;2.43;2.23;;;18.60;99.90;;;;;;4978308;28;20485;-61
2023/09/22 08:10:18;;;;;;;4.37;2.23;;;18.60;99.90;;;;;;4978342;28;20446;-60
2023/09/22 08:12:46;;;;;;;2.40;1.53;;;18.60;99.90;;;;;;4978226;28;20438;-60
2023/09/22 08:15:14;;;;;;;5.20;2.17;;;18.60;99.90;;;;;;4978194;28;20442;-60
2023/09/22 08:17:43;;;;;;;2.00;1.80;;;18.60;99.90;;;;;;4978181;28;20493;-61
2023/09/22 08:20:15;;;;;;;2.10;1.60;;;18.60;99.90;;;;;;4978458;28;20513;-58
2023/09/22 08:22:43;;;;;;;2.50;1.63;;;18.60;99.90;;;;;;4978435;28;20553;-61
2023/09/22 08:25:11;;;;;;;4.80;2.50;;;18.60;99.90;;;;;;4978393;28;20498;-61
2023/09/22 08:27:38;;;;;;;3.93;2.77;;;18.60;99.90;;;;;;4978114;28;20489;-61
2023/09/22 08:30:10;;;;;;;4.20;2.20;;;18.70;99.90;;;;;;4978439;28;20474;-61
2023/09/22 08:32:39;;;;;;;1.87;1.77;;;18.60;99.90;;;;;;4978473;28;20439;-60
2023/09/22 08:35:10;;;;;;;7.50;4.33;;;18.70;99.90;;;;;;4978351;28;20473;-61
2023/09/22 08:37:40;;;;;;;3.33;2.07;;;18.70;99.90;;;;;;4977888;28;20442;-61
2023/09/22 08:40:09;;;;;;;2.27;2.07;;;18.70;99.90;;;;;;4977711;28;20569;-60
2023/09/22 08:42:37;;;;;;;3.50;1.80;;;18.80;99.90;;;;;;4977703;28;20573;-60
2023/09/22 08:45:06;;;;;;;1.97;1.70;;;18.50;99.90;;;;;;4977951;28;20503;-60
2023/09/22 08:47:39;;;;;;;2.60;1.70;;;18.90;99.90;;;;;;4977705;28;20908;-60
2023/09/22 08:50:11;;;;;;;1.93;1.40;;;18.80;99.90;;;;;;4977809;28;20900;-57
2023/09/22 08:52:40;;;;;;;3.13;1.43;;;18.80;99.90;;;;;;4978084;28;20905;-60
2023/09/22 08:55:11;;;;;;;2.07;1.70;;;18.80;99.90;;;;;;4977488;28;20554;-60
2023/09/22 08:57:41;;;;;;;1.87;1.47;;;18.80;99.90;;;;;;4978120;28;20454;-59
2023/09/22 09:00:12;;;;;;;4.33;2.73;;;18.70;99.90;;;;;;4977505;28;20471;-58
2023/09/22 09:02:40;;;;;;;2.27;1.90;;;18.80;99.90;;;;;;4977581;28;20487;-60
2023/09/22 09:05:27;;;;;;;2.50;1.50;;;18.80;99.90;;;;;;4976723;28;20487;-59
2023/09/22 09:07:55;;;;;;;2.57;1.70;;;18.80;99.90;;;;;;4977424;28;20545;-59
2023/09/22 09:10:31;;;;;;;1.87;1.30;;;18.80;99.90;;;;;;4977351;28;20478;-59
2023/09/22 09:13:02;;;;;;;6.43;1.90;;;18.80;99.90;;;;;;4977515;28;20439;-61
2023/09/22 09:15:30;;;;;;;2.20;1.57;;;18.80;99.90;;;;;;4977173;28;20986;-60
2023/09/22 09:18:04;;;;;;;1.90;1.47;;;18.80;99.90;;;;;;4977223;28;20462;-60
2023/09/22 09:20:34;;;;;;;1.93;1.73;;;18.80;99.90;;;;;;4977341;28;20475;-61
2023/09/22 09:23:11;;;;;;;1.93;1.57;;;18.80;99.90;;;;;;4977439;28;20486;-60
2023/09/22 09:25:41;;;;;;;3.10;1.70;;;18.80;99.90;;;;;;4976964;28;20471;-60
2023/09/22 09:28:08;;;;;;;2.67;1.67;;;18.70;99.90;;;;;;4977306;28;20443;-60
2023/09/22 09:30:36;;;;;;;3.67;1.30;;;18.60;99.90;;;;;;4977052;28;20471;-60
2023/09/22 09:33:09;;;;;;;2.10;1.70;;;18.70;99.90;;;;;;4977179;28;20517;-61
2023/09/22 09:35:38;;;;;;;3.53;1.77;;;18.70;99.90;;;;;;4976969;28;20562;-59
2023/09/22 09:38:06;;;;;;;2.47;1.77;;;18.60;99.90;;;;;;4976858;28;20953;-58
2023/09/22 09:40:37;;;;;;;2.80;2.23;;;;;;;;;;4976510;28;20475;-60
2023/09/22 09:43:10;;;;;;;3.67;1.80;;;18.50;99.90;;;;;;4976590;28;20565;-59
2023/09/22 09:45:45;;;;;;;2.93;1.60;;;18.60;99.90;;;;;;4976728;28;20479;-60
2023/09/22 09:48:16;;;;;;;4.77;2.13;;;18.60;99.90;;;;;;4976613;28;20517;-59
2023/09/22 09:50:47;;;;;;;1.73;1.30;;;18.60;99.90;;;;;;4977072;28;20474;-61
2023/09/22 09:53:31;;;;;;;3.37;1.90;;;18.60;99.90;;;;;;4976775;28;20459;-60
2023/09/22 09:55:59;;;;;;;2.00;1.50;;;;;;;;;;4976419;28;20474;-61
2023/09/22 09:58:29;;;;;;;2.67;1.80;;;18.90;99.90;;;;;;4976412;28;20459;-61
2023/09/22 10:00:57;;;;;;;2.13;1.60;;;18.60;99.90;;;;;;4976292;28;20471;-60
2023/09/22 10:03:25;;;;;;;2.33;1.60;;;18.50;99.90;;;;;;4976499;28;20495;-61
2023/09/22 10:05:55;;;;;;;2.63;1.73;;;18.60;99.90;;;;;;4976035;28;20514;-60
2023/09/22 10:08:23;;;;;;;4.47;1.87;;;18.60;99.90;;;;;;4976563;28;20442;-60
2023/09/22 10:10:54;;;;;;;5.10;1.67;;;18.60;99.90;;;;;;4976080;28;20470;-60
2023/09/22 10:13:21;;;;;;;3.97;1.57;;;18.70;99.90;;;;;;4976328;28;20526;-61
2023/09/22 10:15:56;;;;;;;2.43;1.83;;;18.70;99.90;;;;;;4975973;28;20979;-59
2023/09/22 10:18:44;;;;;;;2.67;1.90;;;18.60;99.90;;;;;;4976266;28;21093;-59
2023/09/22 10:21:33;;;;;;;1.70;1.20;;;18.60;99.90;;;;;;4976080;28;20600;-62
2023/09/22 10:24:32;;;;;;;1.63;1.30;;;18.60;99.90;;;;;;4976418;28;20483;-61
2023/09/22 10:27:11;;;;;;;2.33;1.30;;;18.50;99.90;;;;;;4916486;29;20836;-61
2023/09/22 10:29:43;;;;;;;2.10;1.37;;;18.60;99.90;;;;;;4967839;28;20546;-59
2023/09/22 10:32:34;;;;;;;1.70;1.50;;;18.60;99.90;;;;;;4975906;28;20434;-60
2023/09/22 10:35:05;;;;;;;5.50;2.00;;;18.70;99.90;;;;;;4972443;28;20807;-60
2023/09/22 10:37:35;;;;;;;3.30;1.93;;;18.70;99.90;;;;;;4975729;28;20530;-60
2023/09/22 10:40:11;;;;;;;2.27;1.50;;;18.70;99.90;;;;;;4976141;28;20446;-62
2023/09/22 10:42:42;;;;;;;4.03;1.93;;;18.70;99.90;;;;;;4975956;28;20556;-59
2023/09/22 10:45:11;;;;;;;2.33;1.70;;;18.70;99.90;;;;;;4975932;28;20435;-61
2023/09/22 10:47:40;;;;;;;2.67;2.03;;;18.80;99.90;;;;;;4975474;28;20471;-59
2023/09/22 10:50:15;;;;;;;3.27;1.83;;;18.80;99.90;;;;;;4975593;28;20931;-60
2023/09/22 10:52:53;;;;;;;2.37;1.90;;;18.80;99.90;;;;;;4975596;28;20450;-60
2023/09/22 10:55:27;;;;;;;2.50;2.07;;;18.80;99.90;;;;;;4975595;28;20466;-60
2023/09/22 10:57:55;;;;;;;2.07;1.53;;;18.80;99.90;;;;;;4975618;28;20513;-59
2023/09/22 11:00:22;;;;;;;2.83;2.17;;;18.80;99.90;;;;;;4975424;28;20443;-60
2023/09/22 11:02:49;;;;;;;3.17;1.33;;;18.90;99.90;;;;;;4975709;28;20493;-60
2023/09/22 11:05:17;;;;;;;1.90;1.70;;;18.90;99.90;;;;;;4975816;28;20462;-61
2023/09/22 11:07:45;;;;;;;2.73;1.97;;;18.80;99.90;;;;;;4975301;28;20466;-59
2023/09/22 11:10:20;;;;;;;3.30;1.60;;;18.80;99.90;;;;;;4975280;28;20924;-61
2023/09/22 11:12:51;;;;;;;6.03;3.03;;;18.90;99.90;;;;;;4975141;28;20490;-59
2023/09/22 11:15:19;;;;;;;5.03;1.60;;;18.80;99.90;;;;;;4975570;28;20537;-59
2023/09/22 11:17:49;;;;;;;4.97;2.57;;;18.80;99.90;;;;;;4975292;28;20475;-60
2023/09/22 11:20:22;;;;;;;7.83;5.50;;;18.80;99.90;;;;;;4975385;28;20478;-61
2023/09/22 11:22:52;;;;;;;1.93;1.63;;;18.90;99.90;;;;;;4975538;28;20507;-58
2023/09/22 11:25:21;;;;;;;2.20;1.57;;;19.00;99.90;;;;;;4975547;28;20454;-60
2023/09/22 11:27:49;;;;;;;4.10;1.70;;;19.00;99.90;;;;;;4977222;28;20983;-61
2023/09/22 11:30:19;;;;;;;3.27;1.57;;;19.00;99.90;;;;;;4980377;28;20506;-60
2023/09/22 11:32:48;;;;;;;2.10;1.80;;;19.00;99.90;;;;;;4979443;28;20474;-61
2023/09/22 11:35:33;;;;;;;2.23;2.00;;;19.00;99.90;;;;;;4979115;28;20534;-58
2023/09/22 11:38:00;;;;;;;2.10;1.87;;;19.00;99.90;;;;;;4979067;28;20470;-61
2023/09/22 11:40:39;;;;;;;7.13;2.00;;;19.00;99.90;;;;;;4978910;28;20546;-61
2023/09/22 11:43:06;;;;;;;3.80;2.03;;;19.60;99.90;;;;;;4978799;28;20581;-59
2023/09/22 11:45:33;;;;;;;2.43;2.20;;;19.10;99.90;;;;;;4979076;28;20446;-60
2023/09/22 11:48:07;;;;;;;2.60;1.80;;;19.10;99.90;;;;;;4978782;28;20454;-61
2023/09/22 11:50:34;;;;;;;2.90;2.60;;;19.30;99.90;;;;;;4978713;28;20453;-59
2023/09/22 11:53:16;;;;;;;2.90;2.20;;;19.30;99.90;;;;;;4989916;28;20431;-52
2023/09/22 11:55:46;;;;;;;3.23;2.30;;;19.30;99.90;;;;;;5002542;28;20423;-54
2023/09/22 11:58:17;;;;;;;4.63;2.17;;;19.30;99.90;;;;;;5002560;28;20490;-55
2023/09/22 12:00:45;;;;;;;2.37;2.17;;;19.30;99.90;;;;;;5002420;28;20415;-53
2023/09/22 12:03:11;;;;;;;2.63;2.13;;;19.10;99.90;;;;;;5002442;28;20454;-56
2023/09/22 12:05:38;;;;;;;2.67;2.33;;;19.20;99.90;;;;;;5002500;28;20410;-57
2023/09/22 12:08:08;;;;;;;3.33;1.77;;;19.10;99.90;;;;;;5002325;28;20469;-53
2023/09/22 12:10:35;;;;;;;3.17;2.20;;;19.00;99.90;;;;;;5002475;28;20415;-51
2023/09/22 12:13:05;;;;;;;3.30;2.17;;;18.90;99.90;;;;;;5002250;28;20447;-55
2023/09/22 12:15:32;;;;;;;3.00;1.80;;;19.20;99.90;;;;;;5002395;28;20439;-55
2023/09/22 12:17:59;;;;;;;2.63;2.23;;;19.50;99.90;;;;;;5002369;28;20462;-53
2023/09/22 12:20:26;;;;;;;4.13;1.63;;;19.00;99.90;;;;;;5002411;28;20419;-53
2023/09/22 12:22:53;;;;;;;3.40;2.00;;;19.00;99.90;;;;;;5001954;28;20475;-53
2023/09/22 12:25:21;;;;;;;1.50;1.40;;;19.00;99.90;;;;;;5002186;28;20411;-55
2023/09/22 12:27:48;;;;;;;2.80;1.83;;;19.00;99.90;;;;;;5002049;28;20443;-50
2023/09/22 12:30:19;;;;;;;5.20;2.20;;;19.00;99.90;;;;;;5002101;28;20415;-57
2023/09/22 12:32:46;;;;;;;2.10;2.00;;;18.90;99.90;;;;;;5001985;28;20443;-57
2023/09/22 12:35:13;;;;;;;2.40;2.00;;;18.90;99.90;;;;;;5002131;28;20469;-54
2023/09/22 12:37:40;;;;;;;2.50;2.10;;;18.90;99.90;;;;;;5001944;28;20469;-56
2023/09/22 12:40:09;;;;;;;2.63;1.90;;;18.90;99.90;;;;;;5000757;28;20459;-54
2023/09/22 12:42:37;;;;;;;3.10;1.77;;;19.10;99.90;;;;;;5001838;28;20463;-55
2023/09/22 12:45:05;;;;;;;2.27;2.00;;;18.90;99.90;;;;;;5002007;28;20438;-55
2023/09/22 12:47:33;;;;;;;3.47;1.77;;;18.90;99.90;;;;;;5001913;28;20443;-51
2023/09/22 12:50:04;;;;;;;2.50;1.90;;;18.80;99.90;;;;;;5002055;28;20415;-53
2023/09/22 12:52:32;;;;;;;3.60;2.00;;;18.70;99.90;;;;;;5001920;28;20442;-52
2023/09/22 12:54:59;;;;;;;2.90;1.80;;;18.80;99.90;;;;;;5001816;28;20415;-53
2023/09/22 12:57:29;;;;;;;2.37;1.67;;;18.80;99.90;;;;;;5001586;28;20455;-56
2023/09/22 12:59:58;;;;;;;2.20;2.00;;;18.70;99.90;;;;;;5001629;28;20407;-53